Port Richmond — WDH2442 — position and weather

sailwx.info

Track history (hours):
 
Tides and Currents Weather Stations Pressure Air Temp Water Temp Dewpoint Dewpoint Depression Visibility Wind Speed Wind Dir Waves Ship Positions

Port Richmond

Owner: NEW YORK, CITY OF, BROOKLYN, NY. More information available from US FCC via Universal Licensing System and Coast Guard Vessel Documentation Center.

Last reported at 2018-Aug-20 16:30 UTC. Time now 2018-Aug-20 16:46 UTC.
Position N 40°38' W 074°08'.

Length 89 m; draft 5 m.

Type: Tanker. MMSI: 367597640.

Date/timePositionNaut miles runAvg speedWind from/ knotsBaromVisibWave heightAir tempDewpointWater temp
2018-Aug-20 16:30N 40°38' W 074°08'0 0.0
2018-Aug-20 16:03N 40°38' W 074°08'0 0.0
2018-Aug-20 16:00N 40°38' W 074°08'1 1.2
2018-Aug-20 15:30N 40°39' W 074°07'4 8.2
2018-Aug-20 15:03N 40°39' W 074°02'0 0.4
2018-Aug-20 15:00N 40°39' W 074°02'0 0.0
2018-Aug-20 14:03N 40°39' W 074°02'0 0.0
2018-Aug-20 14:00N 40°39' W 074°02'0 0.0
2018-Aug-20 13:30N 40°39' W 074°02'0 0.0
2018-Aug-20 13:03N 40°39' W 074°02'0 0.0
2018-Aug-20 13:00N 40°39' W 074°02'3 5.0
2018-Aug-20 12:30N 40°41' W 074°01'511.8
2018-Aug-20 12:03N 40°46' W 073°57'114.5
2018-Aug-20 11:58N 40°47' W 073°56'  
2018-Aug-15 20:06N 40°44' W 073°58'1 0.0
2018-Aug-15 01:02N 40°44' W 073°57'0 0.0
2018-Aug-14 18:52N 40°44' W 073°57'2 4.7
2018-Aug-14 18:31N 40°43' W 073°58'4 7.6
2018-Aug-14 18:00N 40°40' W 074°02'510.2
2018-Aug-14 17:30N 40°39' W 074°08'4 8.8
2018-Aug-14 17:00N 40°43' W 074°07'0 0.2
2018-Aug-14 16:31N 40°43' W 074°07'0 0.0
2018-Aug-14 16:01N 40°43' W 074°07'0 0.0
2018-Aug-14 15:31N 40°43' W 074°07'0 0.1
2018-Aug-14 15:00N 40°43' W 074°07'4 8.5
2018-Aug-14 14:30N 40°39' W 074°09'4 7.2
2018-Aug-14 14:00N 40°39' W 074°04'4 8.8
2018-Aug-14 13:30N 40°42' W 073°60'2 0.1
2018-Aug-13 20:11N 40°44' W 073°58'0 0.4
2018-Aug-13 19:59N 40°44' W 073°58'3 5.6
2018-Aug-13 19:30N 40°42' W 074°00'4 7.2
2018-Aug-13 19:00N 40°39' W 074°03'4 8.1
2018-Aug-13 18:29N 40°39' W 074°09'4 7.3
2018-Aug-13 18:01N 40°43' W 074°07'0 0.0
2018-Aug-13 17:30N 40°43' W 074°07'0 0.0
2018-Aug-13 17:00N 40°43' W 074°07'0 0.0
2018-Aug-13 16:30N 40°43' W 074°07'1 2.4
2018-Aug-13 16:00N 40°42' W 074°07'2 3.5
2018-Aug-13 15:29N 40°40' W 074°08'3 5.3
2018-Aug-13 15:00N 40°39' W 074°05'4 9.0
2018-Aug-13 14:31N 40°42' W 074°00'3 0.1
2018-Aug-11 21:15N 40°44' W 073°58'0 0.0
2018-Aug-11 19:13N 40°44' W 073°58'1 4.5
2018-Aug-11 19:00N 40°43' W 073°58'3 5.8
2018-Aug-11 18:30N 40°41' W 074°01'4 7.2
2018-Aug-11 17:59N 40°39' W 074°05'3 5.3
2018-Aug-11 17:27N 40°41' W 074°08'2 4.7
2018-Aug-11 17:00N 40°43' W 074°07'0 0.0
2018-Aug-11 16:30N 40°43' W 074°07'0 0.0
2018-Aug-11 16:00N 40°43' W 074°07'0 0.0
2018-Aug-11 15:30N 40°43' W 074°07'0 0.2
2018-Aug-11 15:00N 40°43' W 074°07'4 8.3
2018-Aug-11 14:30N 40°39' W 074°09'4 7.6
2018-Aug-11 14:00N 40°39' W 074°04'5 9.0
2018-Aug-11 13:30N 40°42' W 073°60'3 0.2
2018-Aug-10 18:44N 40°44' W 073°57'1 4.1
2018-Aug-10 18:29N 40°44' W 073°58'4 8.5
2018-Aug-10 18:00N 40°41' W 074°01'6 9.5
2018-Aug-10 17:24N 40°39' W 074°08'4 9.9
2018-Aug-10 17:00N 40°42' W 074°07'  
Track history (hours):
 
Tides and Currents Weather Stations Pressure Air Temp Water Temp Dewpoint Dewpoint Depression Visibility Wind Speed Wind Dir Waves Ship Positions

Port Richmond

Owner: NEW YORK, CITY OF, BROOKLYN, NY. More information available from US FCC via Universal Licensing System and Coast Guard Vessel Documentation Center.

Last reported at 2018-Aug-20 16:30 UTC. Time now 2018-Aug-20 16:46 UTC.
Position N 40°38' W 074°08'.

Length 89 m; draft 5 m.

Type: Tanker. MMSI: 367597640.

Date/timePositionNaut miles runAvg speedWind from/ knotsBaromVisibWave heightAir tempDewpointWater temp
2018-Aug-20 16:30N 40°38' W 074°08'0 0.0
2018-Aug-20 16:03N 40°38' W 074°08'0 0.0
2018-Aug-20 16:00N 40°38' W 074°08'1 1.2
2018-Aug-20 15:30N 40°39' W 074°07'4 8.2
2018-Aug-20 15:03N 40°39' W 074°02'0 0.4
2018-Aug-20 15:00N 40°39' W 074°02'0 0.0
2018-Aug-20 14:03N 40°39' W 074°02'0 0.0
2018-Aug-20 14:00N 40°39' W 074°02'0 0.0
2018-Aug-20 13:30N 40°39' W 074°02'0 0.0
2018-Aug-20 13:03N 40°39' W 074°02'0 0.0
2018-Aug-20 13:00N 40°39' W 074°02'3 5.0
2018-Aug-20 12:30N 40°41' W 074°01'511.8
2018-Aug-20 12:03N 40°46' W 073°57'114.5
2018-Aug-20 11:58N 40°47' W 073°56'  
2018-Aug-15 20:06N 40°44' W 073°58'1 0.0
2018-Aug-15 01:02N 40°44' W 073°57'0 0.0
2018-Aug-14 18:52N 40°44' W 073°57'2 4.7
2018-Aug-14 18:31N 40°43' W 073°58'4 7.6
2018-Aug-14 18:00N 40°40' W 074°02'510.2
2018-Aug-14 17:30N 40°39' W 074°08'4 8.8
2018-Aug-14 17:00N 40°43' W 074°07'0 0.2
2018-Aug-14 16:31N 40°43' W 074°07'0 0.0
2018-Aug-14 16:01N 40°43' W 074°07'0 0.0
2018-Aug-14 15:31N 40°43' W 074°07'0 0.1
2018-Aug-14 15:00N 40°43' W 074°07'4 8.5
2018-Aug-14 14:30N 40°39' W 074°09'4 7.2
2018-Aug-14 14:00N 40°39' W 074°04'4 8.8
2018-Aug-14 13:30N 40°42' W 073°60'2 0.1
2018-Aug-13 20:11N 40°44' W 073°58'0 0.4
2018-Aug-13 19:59N 40°44' W 073°58'3 5.6
2018-Aug-13 19:30N 40°42' W 074°00'4 7.2
2018-Aug-13 19:00N 40°39' W 074°03'4 8.1
2018-Aug-13 18:29N 40°39' W 074°09'4 7.3
2018-Aug-13 18:01N 40°43' W 074°07'0 0.0
2018-Aug-13 17:30N 40°43' W 074°07'0 0.0
2018-Aug-13 17:00N 40°43' W 074°07'0 0.0
2018-Aug-13 16:30N 40°43' W 074°07'1 2.4
2018-Aug-13 16:00N 40°42' W 074°07'2 3.5
2018-Aug-13 15:29N 40°40' W 074°08'3 5.3
2018-Aug-13 15:00N 40°39' W 074°05'4 9.0
2018-Aug-13 14:31N 40°42' W 074°00'3 0.1
2018-Aug-11 21:15N 40°44' W 073°58'0 0.0
2018-Aug-11 19:13N 40°44' W 073°58'1 4.5
2018-Aug-11 19:00N 40°43' W 073°58'3 5.8
2018-Aug-11 18:30N 40°41' W 074°01'4 7.2
2018-Aug-11 17:59N 40°39' W 074°05'3 5.3
2018-Aug-11 17:27N 40°41' W 074°08'2 4.7
2018-Aug-11 17:00N 40°43' W 074°07'0 0.0
2018-Aug-11 16:30N 40°43' W 074°07'0 0.0
2018-Aug-11 16:00N 40°43' W 074°07'0 0.0
2018-Aug-11 15:30N 40°43' W 074°07'0 0.2
2018-Aug-11 15:00N 40°43' W 074°07'4 8.3
2018-Aug-11 14:30N 40°39' W 074°09'4 7.6
2018-Aug-11 14:00N 40°39' W 074°04'5 9.0
2018-Aug-11 13:30N 40°42' W 073°60'3 0.2
2018-Aug-10 18:44N 40°44' W 073°57'1 4.1
2018-Aug-10 18:29N 40°44' W 073°58'4 8.5
2018-Aug-10 18:00N 40°41' W 074°01'6 9.5
2018-Aug-10 17:24N 40°39' W 074°08'4 9.9
2018-Aug-10 17:00N 40°42' W 074°07'  

Dump ship's entire track history